<?xml version="1.0" encoding="UTF-8" standalone="no" ?><gpx xmlns="http://www.topografix.com/GPX/1/1" xmlns:gpxx="http://www.garmin.com/xmlschemas/GpxExtensions/v3" xmlns:wptx1="http://www.garmin.com/xmlschemas/WaypointExtension/v1" xmlns:gpxtpx="http://www.garmin.com/xmlschemas/TrackPointExtension/v1" creator="GuideVTT.com" version="1.1" xmlns:xsi="http://www.w3.org/2001/XMLSchema-instance" xsi:schemaLocation="http://www.topografix.com/GPX/1/1 http://www.topografix.com/GPX/1/1/gpx.xsd http://www.garmin.com/xmlschemas/GpxExtensions/v3 http://www8.garmin.com/xmlschemas/GpxExtensionsv3.xsd http://www.garmin.com/xmlschemas/WaypointExtension/v1 http://www8.garmin.com/xmlschemas/WaypointExtensionv1.xsd http://www.garmin.com/xmlschemas/TrackPointExtension/v1 http://www.garmin.com/xmlschemas/TrackPointExtensionv1.xsd">
<metadata><link href="http://www.garmin.com"><text>Garmin International</text></link><time>2013-06-22T15:13:50Z</time></metadata>
<trk><name>rp_raquettes_2009_1.gpx</name><extensions><gpxx:TrackExtension><gpxx:DisplayColor>Cyan</gpxx:DisplayColor></gpxx:TrackExtension></extensions><trkseg>
<trkpt lat="46.04629755" lon="7.48823404"><ele>1809.819092</ele><time>2009-03-22T11:10:38Z</time></trkpt>
<trkpt lat="46.04631901" lon="7.48823404"><ele>1813.183838</ele><time>2009-03-22T11:10:54Z</time></trkpt>
<trkpt lat="46.04634047" lon="7.48827696"><ele>1802.609131</ele><time>2009-03-22T11:11:36Z</time></trkpt>
<trkpt lat="46.04614735" lon="7.48786926"><ele>1881.917969</ele><time>2009-03-22T11:17:02Z</time></trkpt>
<trkpt lat="46.04621172" lon="7.48799801"><ele>1866.536865</ele><time>2009-03-22T11:17:18Z</time></trkpt>
<trkpt lat="46.04623318" lon="7.48791218"><ele>1863.652832</ele><time>2009-03-22T11:17:29Z</time></trkpt>
<trkpt lat="46.04661942" lon="7.48784781"><ele>1842.50415</ele><time>2009-03-22T11:18:00Z</time></trkpt>
<trkpt lat="46.04694128" lon="7.48767614"><ele>1835.774658</ele><time>2009-03-22T11:18:31Z</time></trkpt>
<trkpt lat="46.04702711" lon="7.48759031"><ele>1834.332764</ele><time>2009-03-22T11:18:41Z</time></trkpt>
<trkpt lat="46.04707003" lon="7.48739719"><ele>1834.813477</ele><time>2009-03-22T11:18:57Z</time></trkpt>
<trkpt lat="46.04713440" lon="7.48735428"><ele>1833.371338</ele><time>2009-03-22T11:19:05Z</time></trkpt>
<trkpt lat="46.04741335" lon="7.48741865"><ele>1824.239014</ele><time>2009-03-22T11:19:31Z</time></trkpt>
<trkpt lat="46.04752064" lon="7.48735428"><ele>1825.200195</ele><time>2009-03-22T11:19:45Z</time></trkpt>
<trkpt lat="46.04754210" lon="7.48728991"><ele>1825.200195</ele><time>2009-03-22T11:19:51Z</time></trkpt>
<trkpt lat="46.04754210" lon="7.48694658"><ele>1830.487549</ele><time>2009-03-22T11:20:23Z</time></trkpt>
<trkpt lat="46.04762793" lon="7.48658180"><ele>1838.178223</ele><time>2009-03-22T11:21:43Z</time></trkpt>
<trkpt lat="46.04758501" lon="7.48565912"><ele>1836.255615</ele><time>2009-03-22T11:23:10Z</time></trkpt>
<trkpt lat="46.04762793" lon="7.48553038"><ele>1835.774658</ele><time>2009-03-22T11:23:24Z</time></trkpt>
<trkpt lat="46.04769230" lon="7.48550892"><ele>1838.658936</ele><time>2009-03-22T11:23:39Z</time></trkpt>
<trkpt lat="46.04786396" lon="7.48555183"><ele>1840.581299</ele><time>2009-03-22T11:24:07Z</time></trkpt>
<trkpt lat="46.04797125" lon="7.48563766"><ele>1843.946045</ele><time>2009-03-22T11:24:31Z</time></trkpt>
<trkpt lat="46.04807854" lon="7.48589516"><ele>1853.078613</ele><time>2009-03-22T11:25:14Z</time></trkpt>
<trkpt lat="46.04809999" lon="7.48606682"><ele>1861.249756</ele><time>2009-03-22T11:25:35Z</time></trkpt>
<trkpt lat="46.04829311" lon="7.48606682"><ele>1861.730469</ele><time>2009-03-22T11:26:08Z</time></trkpt>
<trkpt lat="46.04840040" lon="7.48628139"><ele>1870.382324</ele><time>2009-03-22T11:26:42Z</time></trkpt>
<trkpt lat="46.04848623" lon="7.48634577"><ele>1870.382324</ele><time>2009-03-22T11:26:55Z</time></trkpt>
<trkpt lat="46.04855061" lon="7.48634577"><ele>1869.421143</ele><time>2009-03-22T11:27:06Z</time></trkpt>
<trkpt lat="46.04861498" lon="7.48645306"><ele>1872.304932</ele><time>2009-03-22T11:27:20Z</time></trkpt>
<trkpt lat="46.04874372" lon="7.48647451"><ele>1871.824219</ele><time>2009-03-22T11:27:43Z</time></trkpt>
<trkpt lat="46.04895830" lon="7.48675346"><ele>1872.785645</ele><time>2009-03-22T11:28:24Z</time></trkpt>
<trkpt lat="46.04902267" lon="7.48679638"><ele>1878.072754</ele><time>2009-03-22T11:28:40Z</time></trkpt>
<trkpt lat="46.04906559" lon="7.48671055"><ele>1879.514648</ele><time>2009-03-22T11:28:57Z</time></trkpt>
<trkpt lat="46.04938745" lon="7.48679638"><ele>1887.205322</ele><time>2009-03-22T11:29:59Z</time></trkpt>
<trkpt lat="46.04979515" lon="7.48703241"><ele>1893.453857</ele><time>2009-03-22T11:31:14Z</time></trkpt>
<trkpt lat="46.04983807" lon="7.48707533"><ele>1899.702393</ele><time>2009-03-22T11:31:34Z</time></trkpt>
<trkpt lat="46.04981661" lon="7.48707533"><ele>1903.547852</ele><time>2009-03-22T11:31:44Z</time></trkpt>
<trkpt lat="46.04983807" lon="7.48703241"><ele>1904.028564</ele><time>2009-03-22T11:31:58Z</time></trkpt>
<trkpt lat="46.05039597" lon="7.48713970"><ele>1925.177246</ele><time>2009-03-22T11:34:04Z</time></trkpt>
<trkpt lat="46.05039597" lon="7.48707533"><ele>1919.890137</ele><time>2009-03-22T11:34:14Z</time></trkpt>
<trkpt lat="46.05026722" lon="7.48686075"><ele>1942.481201</ele><time>2009-03-22T11:35:26Z</time></trkpt>
<trkpt lat="46.05020285" lon="7.48688221"><ele>1941.039063</ele><time>2009-03-22T11:35:55Z</time></trkpt>
<trkpt lat="46.05011702" lon="7.48681784"><ele>1942.000488</ele><time>2009-03-22T11:36:16Z</time></trkpt>
<trkpt lat="46.05009556" lon="7.48671055"><ele>1941.039063</ele><time>2009-03-22T11:36:32Z</time></trkpt>
<trkpt lat="46.05003119" lon="7.48660326"><ele>1942.481201</ele><time>2009-03-22T11:36:47Z</time></trkpt>
<trkpt lat="46.05000973" lon="7.48638868"><ele>1943.923096</ele><time>2009-03-22T11:37:13Z</time></trkpt>
<trkpt lat="46.04994535" lon="7.48632431"><ele>1948.249023</ele><time>2009-03-22T11:37:24Z</time></trkpt>
<trkpt lat="46.04983807" lon="7.48613119"><ele>1952.094238</ele><time>2009-03-22T11:37:52Z</time></trkpt>
<trkpt lat="46.04977369" lon="7.48583078"><ele>1960.265381</ele><time>2009-03-22T11:38:33Z</time></trkpt>
<trkpt lat="46.04973078" lon="7.48578787"><ele>1965.552979</ele><time>2009-03-22T11:38:48Z</time></trkpt>
<trkpt lat="46.04960203" lon="7.48544455"><ele>1964.591553</ele><time>2009-03-22T11:39:32Z</time></trkpt>
<trkpt lat="46.04953766" lon="7.48535872"><ele>1966.51416</ele><time>2009-03-22T11:39:45Z</time></trkpt>
<trkpt lat="46.04938745" lon="7.48492956"><ele>1979.010986</ele><time>2009-03-22T11:40:48Z</time></trkpt>
<trkpt lat="46.04940891" lon="7.48454332"><ele>1987.182373</ele><time>2009-03-22T11:41:45Z</time></trkpt>
<trkpt lat="46.04940891" lon="7.48458624"><ele>1990.546875</ele><time>2009-03-22T11:42:32Z</time></trkpt>
<trkpt lat="46.04943037" lon="7.48454332"><ele>1982.856445</ele><time>2009-03-22T11:43:10Z</time></trkpt>
<trkpt lat="46.04945183" lon="7.48458624"><ele>1982.856445</ele><time>2009-03-22T11:43:34Z</time></trkpt>
<trkpt lat="46.04955912" lon="7.48430729"><ele>1992.950195</ele><time>2009-03-22T11:44:36Z</time></trkpt>
<trkpt lat="46.04955912" lon="7.48404980"><ele>2001.602295</ele><time>2009-03-22T11:45:17Z</time></trkpt>
<trkpt lat="46.04958057" lon="7.48400688"><ele>2004.486084</ele><time>2009-03-22T11:45:28Z</time></trkpt>
<trkpt lat="46.04960203" lon="7.48398542"><ele>2007.85083</ele><time>2009-03-22T11:45:42Z</time></trkpt>
<trkpt lat="46.04970932" lon="7.48420000"><ele>2019.386719</ele><time>2009-03-22T11:46:54Z</time></trkpt>
<trkpt lat="46.04990244" lon="7.48441458"><ele>2020.3479</ele><time>2009-03-22T11:47:33Z</time></trkpt>
<trkpt lat="46.05005264" lon="7.48430729"><ele>2024.193115</ele><time>2009-03-22T11:47:58Z</time></trkpt>
<trkpt lat="46.05000973" lon="7.48424292"><ele>2023.712402</ele><time>2009-03-22T11:49:48Z</time></trkpt>
<trkpt lat="46.05005264" lon="7.48417854"><ele>2025.154297</ele><time>2009-03-22T11:50:03Z</time></trkpt>
<trkpt lat="46.05011702" lon="7.48396397"><ele>2028.519287</ele><time>2009-03-22T11:50:28Z</time></trkpt>
<trkpt lat="46.05020285" lon="7.48347044"><ele>2041.977539</ele><time>2009-03-22T11:51:55Z</time></trkpt>
<trkpt lat="46.05024576" lon="7.48340607"><ele>2045.342285</ele><time>2009-03-22T11:52:10Z</time></trkpt>
<trkpt lat="46.05037451" lon="7.48338461"><ele>2047.264893</ele><time>2009-03-22T11:52:33Z</time></trkpt>
<trkpt lat="46.05061054" lon="7.48306274"><ele>2054.474609</ele><time>2009-03-22T11:53:23Z</time></trkpt>
<trkpt lat="46.05063200" lon="7.48293400"><ele>2056.87793</ele><time>2009-03-22T11:53:38Z</time></trkpt>
<trkpt lat="46.05052471" lon="7.48263359"><ele>2065.049316</ele><time>2009-03-22T11:54:31Z</time></trkpt>
<trkpt lat="46.05003119" lon="7.48321295"><ele>2064.087891</ele><time>2009-03-22T11:55:15Z</time></trkpt>
<trkpt lat="46.05050325" lon="7.48241901"><ele>2068.894531</ele><time>2009-03-22T11:55:49Z</time></trkpt>
<trkpt lat="46.05048180" lon="7.48250484"><ele>2065.530029</ele><time>2009-03-22T11:56:16Z</time></trkpt>
<trkpt lat="46.05048180" lon="7.48231173"><ele>2069.375244</ele><time>2009-03-22T11:56:40Z</time></trkpt>
<trkpt lat="46.05041742" lon="7.48196840"><ele>2076.585205</ele><time>2009-03-22T11:57:21Z</time></trkpt>
<trkpt lat="46.05041742" lon="7.48134613"><ele>2084.756348</ele><time>2009-03-22T11:58:26Z</time></trkpt>
<trkpt lat="46.05037451" lon="7.48074532"><ele>2093.408203</ele><time>2009-03-22T11:59:30Z</time></trkpt>
<trkpt lat="46.05039597" lon="7.48061657"><ele>2096.292236</ele><time>2009-03-22T11:59:43Z</time></trkpt>
<trkpt lat="46.05028868" lon="7.48031616"><ele>2102.059814</ele><time>2009-03-22T12:00:17Z</time></trkpt>
<trkpt lat="46.05024576" lon="7.48005867"><ele>2103.982666</ele><time>2009-03-22T12:00:43Z</time></trkpt>
<trkpt lat="46.05007410" lon="7.47967243"><ele>2109.750488</ele><time>2009-03-22T12:01:27Z</time></trkpt>
<trkpt lat="46.05009556" lon="7.47950077"><ele>2108.308594</ele><time>2009-03-22T12:01:55Z</time></trkpt>
<trkpt lat="46.05015993" lon="7.47930765"><ele>2111.67334</ele><time>2009-03-22T12:02:20Z</time></trkpt>
<trkpt lat="46.05020285" lon="7.47926474"><ele>2111.67334</ele><time>2009-03-22T12:02:35Z</time></trkpt>
<trkpt lat="46.05015993" lon="7.47928619"><ele>2114.557129</ele><time>2009-03-22T12:04:00Z</time></trkpt>
<trkpt lat="46.05024576" lon="7.47917891"><ele>2114.557129</ele><time>2009-03-22T12:04:49Z</time></trkpt>
<trkpt lat="46.05026722" lon="7.47911453"><ele>2117.440918</ele><time>2009-03-22T12:05:03Z</time></trkpt>
<trkpt lat="46.05018139" lon="7.47885704"><ele>2122.247559</ele><time>2009-03-22T12:05:38Z</time></trkpt>
<trkpt lat="46.05009556" lon="7.47879267"><ele>2123.689453</ele><time>2009-03-22T12:05:52Z</time></trkpt>
<trkpt lat="46.04992390" lon="7.47879267"><ele>2128.496338</ele><time>2009-03-22T12:20:16Z</time></trkpt>
<trkpt lat="46.04988098" lon="7.47864246"><ele>2126.57373</ele><time>2009-03-22T12:22:45Z</time></trkpt>
<trkpt lat="46.04994535" lon="7.47879267"><ele>2112.153809</ele><time>2009-03-22T12:23:39Z</time></trkpt>
<trkpt lat="46.04973078" lon="7.47842789"><ele>2122.728271</ele><time>2009-03-22T12:24:28Z</time></trkpt>
<trkpt lat="46.04960203" lon="7.47799873"><ele>2128.496338</ele><time>2009-03-22T12:25:10Z</time></trkpt>
<trkpt lat="46.04955912" lon="7.47761250"><ele>2140.512695</ele><time>2009-03-22T12:25:58Z</time></trkpt>
<trkpt lat="46.04940891" lon="7.47709751"><ele>2147.722656</ele><time>2009-03-22T12:27:08Z</time></trkpt>
<trkpt lat="46.04940891" lon="7.47686148"><ele>2147.241943</ele><time>2009-03-22T12:27:37Z</time></trkpt>
<trkpt lat="46.04936600" lon="7.47671127"><ele>2150.125977</ele><time>2009-03-22T12:28:03Z</time></trkpt>
<trkpt lat="46.04943037" lon="7.47660398"><ele>2153.971191</ele><time>2009-03-22T12:28:27Z</time></trkpt>
<trkpt lat="46.04943037" lon="7.47651815"><ele>2157.81665</ele><time>2009-03-22T12:28:39Z</time></trkpt>
<trkpt lat="46.04947329" lon="7.47649670"><ele>2158.777832</ele><time>2009-03-22T12:28:46Z</time></trkpt>
<trkpt lat="46.04951620" lon="7.47653961"><ele>2160.219727</ele><time>2009-03-22T12:28:58Z</time></trkpt>
<trkpt lat="46.04968786" lon="7.47649670"><ele>2163.584229</ele><time>2009-03-22T12:29:39Z</time></trkpt>
<trkpt lat="46.04983807" lon="7.47660398"><ele>2165.987549</ele><time>2009-03-22T12:30:18Z</time></trkpt>
<trkpt lat="46.04994535" lon="7.47658253"><ele>2170.794189</ele><time>2009-03-22T12:30:41Z</time></trkpt>
<trkpt lat="46.04988098" lon="7.47619629"><ele>2178.00415</ele><time>2009-03-22T12:31:26Z</time></trkpt>
<trkpt lat="46.05005264" lon="7.47611046"><ele>2183.29126</ele><time>2009-03-22T12:32:03Z</time></trkpt>
<trkpt lat="46.05011702" lon="7.47613192"><ele>2185.69458</ele><time>2009-03-22T12:32:18Z</time></trkpt>
<trkpt lat="46.05009556" lon="7.47574568"><ele>2193.385254</ele><time>2009-03-22T12:33:10Z</time></trkpt>
<trkpt lat="46.05011702" lon="7.47544527"><ele>2203.479004</ele><time>2009-03-22T12:33:50Z</time></trkpt>
<trkpt lat="46.05018139" lon="7.47512341"><ele>2208.285645</ele><time>2009-03-22T12:34:34Z</time></trkpt>
<trkpt lat="46.05035305" lon="7.47520924"><ele>2215.495605</ele><time>2009-03-22T12:35:20Z</time></trkpt>
<trkpt lat="46.05033159" lon="7.47512341"><ele>2219.34082</ele><time>2009-03-22T12:35:32Z</time></trkpt>
<trkpt lat="46.05035305" lon="7.47484446"><ele>2227.031494</ele><time>2009-03-22T12:36:14Z</time></trkpt>
<trkpt lat="46.05039597" lon="7.47482300"><ele>2229.43457</ele><time>2009-03-22T12:36:25Z</time></trkpt>
<trkpt lat="46.05054617" lon="7.47454405"><ele>2234.721924</ele><time>2009-03-22T12:37:29Z</time></trkpt>
<trkpt lat="46.05058908" lon="7.47458696"><ele>2237.125244</ele><time>2009-03-22T12:37:39Z</time></trkpt>
<trkpt lat="46.05069637" lon="7.47458696"><ele>2243.373779</ele><time>2009-03-22T12:38:05Z</time></trkpt>
<trkpt lat="46.05069637" lon="7.47452259"><ele>2244.815674</ele><time>2009-03-22T12:38:15Z</time></trkpt>
<trkpt lat="46.05080366" lon="7.47439384"><ele>2246.257813</ele><time>2009-03-22T12:38:46Z</time></trkpt>
<trkpt lat="46.05091095" lon="7.47413635"><ele>2253.948486</ele><time>2009-03-22T12:39:34Z</time></trkpt>
<trkpt lat="46.05095387" lon="7.47415781"><ele>2255.390381</ele><time>2009-03-22T12:39:44Z</time></trkpt>
<trkpt lat="46.05106115" lon="7.47409344"><ele>2259.235596</ele><time>2009-03-22T12:40:06Z</time></trkpt>
<trkpt lat="46.05127573" lon="7.47375011"><ele>2269.810059</ele><time>2009-03-22T12:41:28Z</time></trkpt>
<trkpt lat="46.05134010" lon="7.47349262"><ele>2277.981201</ele><time>2009-03-22T12:42:15Z</time></trkpt>
<trkpt lat="46.05140448" lon="7.47353554"><ele>2278.461914</ele><time>2009-03-22T12:42:29Z</time></trkpt>
<trkpt lat="46.05146885" lon="7.47379303"><ele>2284.710693</ele><time>2009-03-22T12:43:13Z</time></trkpt>
<trkpt lat="46.05153322" lon="7.47375011"><ele>2286.152588</ele><time>2009-03-22T12:43:28Z</time></trkpt>
<trkpt lat="46.05159760" lon="7.47355700"><ele>2292.881592</ele><time>2009-03-22T12:44:02Z</time></trkpt>
<trkpt lat="46.05161905" lon="7.47355700"><ele>2294.323486</ele><time>2009-03-22T12:44:13Z</time></trkpt>
<trkpt lat="46.05166197" lon="7.47362137"><ele>2294.323486</ele><time>2009-03-22T12:44:27Z</time></trkpt>
<trkpt lat="46.05168343" lon="7.47372866"><ele>2294.804199</ele><time>2009-03-22T12:44:40Z</time></trkpt>
<trkpt lat="46.05166197" lon="7.47409344"><ele>2305.378906</ele><time>2009-03-22T12:45:29Z</time></trkpt>
<trkpt lat="46.05168343" lon="7.47411489"><ele>2304.41748</ele><time>2009-03-22T12:45:38Z</time></trkpt>
<trkpt lat="46.05166197" lon="7.47411489"><ele>2299.61084</ele><time>2009-03-22T12:46:47Z</time></trkpt>
<trkpt lat="46.05189800" lon="7.47377157"><ele>2303.456299</ele><time>2009-03-22T12:48:54Z</time></trkpt>
<trkpt lat="46.05196238" lon="7.47364283"><ele>2307.782227</ele><time>2009-03-22T12:49:16Z</time></trkpt>
<trkpt lat="46.05196238" lon="7.47357845"><ele>2311.146729</ele><time>2009-03-22T12:49:25Z</time></trkpt>
<trkpt lat="46.05202675" lon="7.47355700"><ele>2312.588623</ele><time>2009-03-22T12:49:39Z</time></trkpt>
<trkpt lat="46.05209112" lon="7.47342825"><ele>2316.434082</ele><time>2009-03-22T12:50:06Z</time></trkpt>
<trkpt lat="46.05209112" lon="7.47329950"><ele>2320.279297</ele><time>2009-03-22T12:50:25Z</time></trkpt>
<trkpt lat="46.05226278" lon="7.47314930"><ele>2329.892334</ele><time>2009-03-22T12:51:09Z</time></trkpt>
<trkpt lat="46.05226278" lon="7.47308493"><ele>2332.776367</ele><time>2009-03-22T12:51:20Z</time></trkpt>
<trkpt lat="46.05237007" lon="7.47291327"><ele>2335.6604</ele><time>2009-03-22T12:51:54Z</time></trkpt>
<trkpt lat="46.05237007" lon="7.47282743"><ele>2338.544434</ele><time>2009-03-22T12:52:08Z</time></trkpt>
<trkpt lat="46.05247736" lon="7.47250557"><ele>2348.157471</ele><time>2009-03-22T12:53:12Z</time></trkpt>
<trkpt lat="46.05247736" lon="7.47244120"><ele>2350.080322</ele><time>2009-03-22T12:53:25Z</time></trkpt>
<trkpt lat="46.05215549" lon="7.47171164"><ele>2370.267822</ele><time>2009-03-22T12:55:37Z</time></trkpt>
<trkpt lat="46.05219841" lon="7.47171164"><ele>2362.577148</ele><time>2009-03-22T12:56:40Z</time></trkpt>
<trkpt lat="46.05226278" lon="7.47162580"><ele>2350.080322</ele><time>2009-03-22T13:00:52Z</time></trkpt>
<trkpt lat="46.05219841" lon="7.47171164"><ele>2364.5</ele><time>2009-03-22T13:01:41Z</time></trkpt>
<trkpt lat="46.05221987" lon="7.47192621"><ele>2363.53833</ele><time>2009-03-22T13:02:05Z</time></trkpt>
<trkpt lat="46.05237007" lon="7.47229099"><ele>2355.367432</ele><time>2009-03-22T13:02:40Z</time></trkpt>
<trkpt lat="46.05239153" lon="7.47246265"><ele>2352.002686</ele><time>2009-03-22T13:02:53Z</time></trkpt>
<trkpt lat="46.05215549" lon="7.47323513"><ele>2328.450439</ele><time>2009-03-22T13:03:48Z</time></trkpt>
<trkpt lat="46.05191946" lon="7.47370720"><ele>2314.030518</ele><time>2009-03-22T13:04:21Z</time></trkpt>
<trkpt lat="46.05185509" lon="7.47394323"><ele>2308.262695</ele><time>2009-03-22T13:04:34Z</time></trkpt>
<trkpt lat="46.05164051" lon="7.47450113"><ele>2302.01416</ele><time>2009-03-22T13:05:16Z</time></trkpt>
<trkpt lat="46.05140448" lon="7.47486591"><ele>2282.307129</ele><time>2009-03-22T13:05:54Z</time></trkpt>
<trkpt lat="46.05140448" lon="7.47493029"><ele>2281.826416</ele><time>2009-03-22T13:05:58Z</time></trkpt>
<trkpt lat="46.05134010" lon="7.47508049"><ele>2277.981201</ele><time>2009-03-22T13:06:09Z</time></trkpt>
<trkpt lat="46.05121136" lon="7.47505903"><ele>2272.213379</ele><time>2009-03-22T13:06:22Z</time></trkpt>
<trkpt lat="46.05103970" lon="7.47518778"><ele>2262.600098</ele><time>2009-03-22T13:06:41Z</time></trkpt>
<trkpt lat="46.05073929" lon="7.47523069"><ele>2240.970459</ele><time>2009-03-22T13:07:23Z</time></trkpt>
<trkpt lat="46.05058908" lon="7.47531652"><ele>2231.357178</ele><time>2009-03-22T13:07:38Z</time></trkpt>
<trkpt lat="46.05058908" lon="7.47548819"><ele>2230.395996</ele><time>2009-03-22T13:07:55Z</time></trkpt>
<trkpt lat="46.05031013" lon="7.47553110"><ele>2212.130859</ele><time>2009-03-22T13:08:37Z</time></trkpt>
<trkpt lat="46.05020285" lon="7.47559547"><ele>2205.882324</ele><time>2009-03-22T13:08:48Z</time></trkpt>
<trkpt lat="46.05015993" lon="7.47591734"><ele>2199.153076</ele><time>2009-03-22T13:09:08Z</time></trkpt>
<trkpt lat="46.05009556" lon="7.47606754"><ele>2194.346436</ele><time>2009-03-22T13:09:19Z</time></trkpt>
<trkpt lat="46.05007410" lon="7.47626066"><ele>2192.424072</ele><time>2009-03-22T13:09:32Z</time></trkpt>
<trkpt lat="46.05011702" lon="7.47658253"><ele>2187.617188</ele><time>2009-03-22T13:09:58Z</time></trkpt>
<trkpt lat="46.05005264" lon="7.47694731"><ele>2180.407471</ele><time>2009-03-22T13:10:28Z</time></trkpt>
<trkpt lat="46.04996681" lon="7.47696877"><ele>2175.60083</ele><time>2009-03-22T13:10:37Z</time></trkpt>
<trkpt lat="46.04985952" lon="7.47692585"><ele>2169.832764</ele><time>2009-03-22T13:10:51Z</time></trkpt>
<trkpt lat="46.04983807" lon="7.47701168"><ele>2166.468262</ele><time>2009-03-22T13:11:37Z</time></trkpt>
<trkpt lat="46.04966640" lon="7.47709751"><ele>2157.81665</ele><time>2009-03-22T13:11:54Z</time></trkpt>
<trkpt lat="46.04975224" lon="7.47729063"><ele>2153.009766</ele><time>2009-03-22T13:12:12Z</time></trkpt>
<trkpt lat="46.04981661" lon="7.47771978"><ele>2148.203125</ele><time>2009-03-22T13:12:41Z</time></trkpt>
<trkpt lat="46.04990244" lon="7.47797728"><ele>2142.435547</ele><time>2009-03-22T13:12:59Z</time></trkpt>
<trkpt lat="46.04988098" lon="7.47829914"><ele>2139.55127</ele><time>2009-03-22T13:13:16Z</time></trkpt>
<trkpt lat="46.04992390" lon="7.47872829"><ele>2133.302734</ele><time>2009-03-22T13:13:43Z</time></trkpt>
<trkpt lat="46.05000973" lon="7.47889996"><ele>2128.015625</ele><time>2009-03-22T13:13:56Z</time></trkpt>
<trkpt lat="46.05003119" lon="7.47920036"><ele>2123.208984</ele><time>2009-03-22T13:14:16Z</time></trkpt>
<trkpt lat="46.05015993" lon="7.47982264"><ele>2114.557129</ele><time>2009-03-22T13:14:57Z</time></trkpt>
<trkpt lat="46.05013847" lon="7.47984409"><ele>2114.076416</ele><time>2009-03-22T13:14:59Z</time></trkpt>
<trkpt lat="46.05022430" lon="7.48005867"><ele>2109.750488</ele><time>2009-03-22T13:15:13Z</time></trkpt>
<trkpt lat="46.05035305" lon="7.48065948"><ele>2100.61792</ele><time>2009-03-22T13:15:51Z</time></trkpt>
<trkpt lat="46.05039597" lon="7.48209715"><ele>2078.988281</ele><time>2009-03-22T13:17:21Z</time></trkpt>
<trkpt lat="46.05046034" lon="7.48233318"><ele>2074.181641</ele><time>2009-03-22T13:17:34Z</time></trkpt>
<trkpt lat="46.05048180" lon="7.48254776"><ele>2070.336426</ele><time>2009-03-22T13:17:46Z</time></trkpt>
<trkpt lat="46.05058908" lon="7.48293400"><ele>2062.165283</ele><time>2009-03-22T13:18:11Z</time></trkpt>
<trkpt lat="46.05052471" lon="7.48312712"><ele>2056.397217</ele><time>2009-03-22T13:18:30Z</time></trkpt>
<trkpt lat="46.05041742" lon="7.48332024"><ele>2053.032715</ele><time>2009-03-22T13:18:45Z</time></trkpt>
<trkpt lat="46.05020285" lon="7.48344898"><ele>2047.264893</ele><time>2009-03-22T13:19:08Z</time></trkpt>
<trkpt lat="46.05009556" lon="7.48400688"><ele>2032.844971</ele><time>2009-03-22T13:19:50Z</time></trkpt>
<trkpt lat="46.05000973" lon="7.48428583"><ele>2025.154297</ele><time>2009-03-22T13:20:15Z</time></trkpt>
<trkpt lat="46.05007410" lon="7.48430729"><ele>2018.906006</ele><time>2009-03-22T13:20:42Z</time></trkpt>
<trkpt lat="46.05005264" lon="7.48432875"><ele>2023.712402</ele><time>2009-03-22T13:21:07Z</time></trkpt>
<trkpt lat="46.04992390" lon="7.48437166"><ele>2020.828613</ele><time>2009-03-22T13:21:54Z</time></trkpt>
<trkpt lat="46.04979515" lon="7.48424292"><ele>2018.425293</ele><time>2009-03-22T13:22:10Z</time></trkpt>
<trkpt lat="46.04960203" lon="7.48398542"><ele>2011.215332</ele><time>2009-03-22T13:22:37Z</time></trkpt>
<trkpt lat="46.04953766" lon="7.48396397"><ele>2008.331299</ele><time>2009-03-22T13:22:50Z</time></trkpt>
<trkpt lat="46.04951620" lon="7.48426437"><ele>2002.082764</ele><time>2009-03-22T13:23:17Z</time></trkpt>
<trkpt lat="46.04943037" lon="7.48454332"><ele>1994.39209</ele><time>2009-03-22T13:24:12Z</time></trkpt>
<trkpt lat="46.04938745" lon="7.48456478"><ele>1991.027588</ele><time>2009-03-22T13:24:31Z</time></trkpt>
<trkpt lat="46.04936600" lon="7.48497248"><ele>1986.70166</ele><time>2009-03-22T13:25:19Z</time></trkpt>
<trkpt lat="46.04943037" lon="7.48542309"><ele>1978.049805</ele><time>2009-03-22T13:26:04Z</time></trkpt>
<trkpt lat="46.04953766" lon="7.48559475"><ele>1973.243408</ele><time>2009-03-22T13:26:20Z</time></trkpt>
<trkpt lat="46.04966640" lon="7.48574495"><ele>1967.475342</ele><time>2009-03-22T13:26:33Z</time></trkpt>
<trkpt lat="46.04977369" lon="7.48604536"><ele>1959.304199</ele><time>2009-03-22T13:26:53Z</time></trkpt>
<trkpt lat="46.04994535" lon="7.48632431"><ele>1952.094238</ele><time>2009-03-22T13:27:16Z</time></trkpt>
<trkpt lat="46.04998827" lon="7.48666763"><ele>1946.326416</ele><time>2009-03-22T13:27:45Z</time></trkpt>
<trkpt lat="46.05007410" lon="7.48681784"><ele>1943.442383</ele><time>2009-03-22T13:27:59Z</time></trkpt>
<trkpt lat="46.05028868" lon="7.48698950"><ele>1935.27124</ele><time>2009-03-22T13:28:51Z</time></trkpt>
<trkpt lat="46.05026722" lon="7.48705387"><ele>1938.635986</ele><time>2009-03-22T13:29:02Z</time></trkpt>
<trkpt lat="46.05024576" lon="7.48709679"><ele>1940.077881</ele><time>2009-03-22T13:29:13Z</time></trkpt>
<trkpt lat="46.05011702" lon="7.48705387"><ele>1932.387451</ele><time>2009-03-22T13:29:46Z</time></trkpt>
<trkpt lat="46.04988098" lon="7.48711824"><ele>1930.945313</ele><time>2009-03-22T13:30:08Z</time></trkpt>
<trkpt lat="46.04970932" lon="7.48711824"><ele>1928.541992</ele><time>2009-03-22T13:30:24Z</time></trkpt>
<trkpt lat="46.04945183" lon="7.48694658"><ele>1923.735352</ele><time>2009-03-22T13:30:59Z</time></trkpt>
<trkpt lat="46.04912996" lon="7.48681784"><ele>1917.967529</ele><time>2009-03-22T13:31:36Z</time></trkpt>
<trkpt lat="46.04900122" lon="7.48677492"><ele>1921.332031</ele><time>2009-03-22T13:31:50Z</time></trkpt>
<trkpt lat="46.04897976" lon="7.48686075"><ele>1913.160889</ele><time>2009-03-22T13:31:59Z</time></trkpt>
<trkpt lat="46.04872227" lon="7.48649597"><ele>1894.415039</ele><time>2009-03-22T13:32:41Z</time></trkpt>
<trkpt lat="46.04857206" lon="7.48645306"><ele>1886.724609</ele><time>2009-03-22T13:32:56Z</time></trkpt>
<trkpt lat="46.04852915" lon="7.48638868"><ele>1884.802246</ele><time>2009-03-22T13:33:04Z</time></trkpt>
<trkpt lat="46.04835749" lon="7.48623848"><ele>1878.072754</ele><time>2009-03-22T13:33:27Z</time></trkpt>
<trkpt lat="46.04833603" lon="7.48615265"><ele>1874.708252</ele><time>2009-03-22T13:33:35Z</time></trkpt>
<trkpt lat="46.04827166" lon="7.48606682"><ele>1870.863037</ele><time>2009-03-22T13:33:48Z</time></trkpt>
<trkpt lat="46.04809999" lon="7.48602390"><ele>1865.094971</ele><time>2009-03-22T13:34:03Z</time></trkpt>
<trkpt lat="46.04814291" lon="7.48598099"><ele>1862.210938</ele><time>2009-03-22T13:34:57Z</time></trkpt>
<trkpt lat="46.04807854" lon="7.48576641"><ele>1856.443115</ele><time>2009-03-22T13:35:17Z</time></trkpt>
<trkpt lat="46.04790688" lon="7.48559475"><ele>1851.636475</ele><time>2009-03-22T13:35:42Z</time></trkpt>
<trkpt lat="46.04779959" lon="7.48553038"><ele>1855.001221</ele><time>2009-03-22T13:35:55Z</time></trkpt>
<trkpt lat="46.04764938" lon="7.48550892"><ele>1855.962402</ele><time>2009-03-22T13:36:17Z</time></trkpt>
<trkpt lat="46.04760647" lon="7.48559475"><ele>1852.117188</ele><time>2009-03-22T13:36:24Z</time></trkpt>
<trkpt lat="46.04758501" lon="7.48576641"><ele>1848.271729</ele><time>2009-03-22T13:36:39Z</time></trkpt>
<trkpt lat="46.04756355" lon="7.48574495"><ele>1847.79126</ele><time>2009-03-22T13:36:53Z</time></trkpt>
<trkpt lat="46.04760647" lon="7.48668909"><ele>1831.44873</ele><time>2009-03-22T13:37:50Z</time></trkpt>
<trkpt lat="46.04752064" lon="7.48748302"><ele>1827.123047</ele><time>2009-03-22T13:38:45Z</time></trkpt>
<trkpt lat="46.04760647" lon="7.48767614"><ele>1829.04541</ele><time>2009-03-22T13:38:59Z</time></trkpt>
<trkpt lat="46.04771376" lon="7.48778343"><ele>1824.719727</ele><time>2009-03-22T13:39:12Z</time></trkpt>
<trkpt lat="46.04777813" lon="7.48801947"><ele>1823.277832</ele><time>2009-03-22T13:39:27Z</time></trkpt>
<trkpt lat="46.04788542" lon="7.48821259"><ele>1818.470947</ele><time>2009-03-22T13:39:42Z</time></trkpt>
<trkpt lat="46.04797125" lon="7.48831987"><ele>1816.54834</ele><time>2009-03-22T13:39:54Z</time></trkpt>
<trkpt lat="46.04812145" lon="7.48840570"><ele>1814.14502</ele><time>2009-03-22T13:40:06Z</time></trkpt>
<trkpt lat="46.04807854" lon="7.48851299"><ele>1815.587158</ele><time>2009-03-22T13:40:12Z</time></trkpt>
<trkpt lat="46.04790688" lon="7.48859882"><ele>1820.393799</ele><time>2009-03-22T13:40:26Z</time></trkpt>
<trkpt lat="46.04741335" lon="7.48859882"><ele>1822.797119</ele><time>2009-03-22T13:41:09Z</time></trkpt>
<trkpt lat="46.04719877" lon="7.48853445"><ele>1821.35498</ele><time>2009-03-22T13:41:27Z</time></trkpt>
<trkpt lat="46.04681253" lon="7.48827696"><ele>1818.470947</ele><time>2009-03-22T13:42:02Z</time></trkpt>
<trkpt lat="46.04661942" lon="7.48819113"><ele>1817.509521</ele><time>2009-03-22T13:42:18Z</time></trkpt>
<trkpt lat="46.04631901" lon="7.48819113"><ele>1819.912842</ele><time>2009-03-22T13:43:34Z</time></trkpt>
</trkseg></trk></gpx>